Cap Aiguades — FMII — position and weather

sailwx.info

Track history (hours):
 
Tides and Currents Weather Stations Pressure Air Temp Water Temp Dewpoint Dewpoint Depression Visibility Wind Speed Wind Dir Waves Ship Positions

Cap Aiguades

Last reported at 2018-Feb-17 10:47 UTC. Time now 2018-Feb-19 00:22 UTC.
Position N 43°24' E 004°59'.

Length 89 m; draft 3.5 m.

Type: Ship. MMSI: 228237800.

Date/timePositionNaut miles runAvg speedWind from/ knotsBaromVisibWave heightAir tempDewpointWater temp
2018-Feb-17 10:47N 43°24' E 004°59'0 1.6
2018-Feb-17 10:30N 43°23' E 004°59'4 8.2
2018-Feb-17 09:59N 43°24' E 004°53'1 0.0
2018-Feb-15 22:25N 43°25' E 004°53'3 8.4
2018-Feb-15 22:01N 43°23' E 004°57'0 0.9
2018-Feb-15 21:30N 43°23' E 004°58'0 0.0
2018-Feb-15 21:00N 43°23' E 004°58'0 0.0
2018-Feb-15 20:27N 43°23' E 004°58'0 0.0
2018-Feb-15 20:00N 43°23' E 004°58'0 0.0
2018-Feb-15 19:30N 43°23' E 004°58'0 0.0
2018-Feb-15 19:00N 43°23' E 004°58'0 0.1
2018-Feb-15 18:30N 43°23' E 004°58'0 0.0
2018-Feb-15 18:00N 43°23' E 004°58'0 0.0
2018-Feb-15 17:27N 43°23' E 004°58'0 0.0
2018-Feb-15 16:54N 43°23' E 004°58'1 2.7
2018-Feb-15 16:28N 43°24' E 004°59'0 0.0
2018-Feb-15 15:58N 43°24' E 004°59'0 0.0
2018-Feb-15 15:28N 43°24' E 004°59'0 0.0
2018-Feb-15 14:52N 43°24' E 004°59'0 0.0
2018-Feb-15 14:28N 43°24' E 004°59'0 0.0
2018-Feb-15 13:58N 43°24' E 004°59'0 0.0
2018-Feb-15 13:28N 43°24' E 004°59'0 0.0
2018-Feb-15 12:52N 43°24' E 004°59'0 0.0
2018-Feb-15 12:28N 43°24' E 004°59'0 0.0
2018-Feb-15 11:52N 43°24' E 004°59'0 0.0
2018-Feb-15 11:22N 43°24' E 004°59'0 0.0
2018-Feb-15 10:46N 43°24' E 004°59'0 0.0
2018-Feb-15 10:28N 43°24' E 004°59'0 0.0
2018-Feb-15 09:58N 43°24' E 004°59'0 0.0
2018-Feb-15 09:28N 43°24' E 004°59'0 0.0
2018-Feb-15 08:58N 43°24' E 004°59'0 0.0
2018-Feb-15 08:28N 43°24' E 004°59'0 0.0
2018-Feb-15 07:58N 43°24' E 004°59'0 0.0
2018-Feb-15 07:28N 43°24' E 004°59'0 0.0
2018-Feb-15 06:58N 43°24' E 004°59'0 0.0
2018-Feb-15 06:25N 43°24' E 004°59'0 0.0
2018-Feb-15 05:58N 43°24' E 004°59'0 0.0
2018-Feb-15 05:28N 43°24' E 004°59'0 0.0
2018-Feb-15 04:58N 43°24' E 004°59'0 0.0
2018-Feb-15 04:22N 43°24' E 004°59'0 0.0
2018-Feb-15 03:58N 43°24' E 004°59'0 0.0
2018-Feb-15 03:28N 43°24' E 004°59'0 0.0
2018-Feb-15 02:58N 43°24' E 004°59'0 0.0
2018-Feb-15 02:28N 43°24' E 004°59'0 0.0
2018-Feb-15 01:58N 43°24' E 004°59'0 0.0
2018-Feb-15 01:19N 43°24' E 004°59'0 0.0
2018-Feb-15 00:58N 43°24' E 004°59'0 0.0
2018-Feb-15 00:28N 43°24' E 004°59'0 0.0
2018-Feb-14 23:58N 43°24' E 004°59'0 0.0
2018-Feb-14 23:28N 43°24' E 004°59'0 0.0
2018-Feb-14 22:58N 43°24' E 004°59'0 0.0
2018-Feb-14 22:10N 43°24' E 004°59'0 0.0
2018-Feb-14 21:52N 43°24' E 004°59'0 0.0
2018-Feb-14 21:22N 43°24' E 004°59'0 0.0
2018-Feb-14 20:58N 43°24' E 004°59'0 0.0
2018-Feb-14 20:28N 43°24' E 004°59'0 0.0
2018-Feb-14 19:58N 43°24' E 004°59'0 0.0
2018-Feb-14 19:28N 43°24' E 004°59'0 0.0
2018-Feb-14 18:58N 43°24' E 004°59'0 0.0
2018-Feb-14 18:28N 43°24' E 004°59'0 0.0
2018-Feb-14 17:58N 43°24' E 004°59'1 1.2
2018-Feb-14 17:27N 43°24' E 004°59'0 0.0
2018-Feb-14 16:57N 43°24' E 004°59'0 0.0
2018-Feb-14 16:27N 43°24' E 004°59'0 0.0
2018-Feb-14 15:57N 43°24' E 004°59'0 0.0
2018-Feb-14 15:27N 43°24' E 004°59'0 0.0
2018-Feb-14 14:57N 43°24' E 004°59'0 0.0
2018-Feb-14 14:15N 43°24' E 004°59'0 0.0
2018-Feb-14 13:57N 43°24' E 004°59'0 0.0
2018-Feb-14 13:27N 43°24' E 004°59'0 0.0
2018-Feb-14 12:57N 43°24' E 004°59'0 0.0
2018-Feb-14 12:27N 43°24' E 004°59'0 0.0
2018-Feb-14 11:57N 43°24' E 004°59'0 0.0
2018-Feb-14 11:27N 43°24' E 004°59'0 0.0
2018-Feb-14 10:57N 43°24' E 004°59'0 0.0
2018-Feb-14 10:27N 43°24' E 004°59'0 0.0
2018-Feb-14 09:57N 43°24' E 004°59'3 6.4
2018-Feb-14 09:30N 43°24' E 004°56'2 0.2
2018-Feb-14 00:24N 43°24' E 004°53'4 9.3
2018-Feb-14 00:00N 43°23' E 004°58'1 2.2
2018-Feb-13 23:27N 43°24' E 004°59'0 0.0
2018-Feb-13 22:57N 43°24' E 004°59'0 0.0
2018-Feb-13 22:27N 43°24' E 004°59'0 0.0
2018-Feb-13 22:00N 43°24' E 004°59'0 0.0
2018-Feb-13 21:27N 43°24' E 004°59'0 0.0
2018-Feb-13 20:57N 43°24' E 004°59'0 0.0
2018-Feb-13 20:27N 43°24' E 004°59'0 0.0
2018-Feb-13 19:57N 43°24' E 004°59'0 0.0
2018-Feb-13 19:27N 43°24' E 004°59'0 0.0
2018-Feb-13 19:00N 43°24' E 004°59'0 0.0
2018-Feb-13 18:30N 43°24' E 004°59'0 0.0
2018-Feb-13 17:57N 43°24' E 004°59'0 0.0
2018-Feb-13 17:27N 43°24' E 004°59'0 0.0
2018-Feb-13 16:57N 43°24' E 004°59'0 0.0
2018-Feb-13 16:27N 43°24' E 004°59'0 0.0
2018-Feb-13 15:51N 43°24' E 004°59'0 0.0
2018-Feb-13 15:27N 43°24' E 004°59'0 0.0
2018-Feb-13 14:57N 43°24' E 004°59'0 0.0
2018-Feb-13 14:21N 43°24' E 004°59'0 0.0
2018-Feb-13 14:00N 43°24' E 004°59'0 0.0
2018-Feb-13 13:21N 43°24' E 004°59'0 0.1
2018-Feb-13 12:58N 43°24' E 004°59'0 0.9
2018-Feb-13 12:25N 43°24' E 004°59'0 0.0
2018-Feb-13 11:55N 43°24' E 004°59'0 0.0
2018-Feb-13 11:19N 43°24' E 004°59'0 0.0
2018-Feb-13 10:55N 43°24' E 004°59'0 0.0
2018-Feb-13 10:25N 43°24' E 004°59'0 0.0
2018-Feb-13 09:55N 43°24' E 004°59'0 0.0
2018-Feb-13 09:25N 43°24' E 004°59'0 0.0
2018-Feb-13 08:55N 43°24' E 004°59'0 0.0
2018-Feb-13 08:25N 43°24' E 004°59'0 0.0
2018-Feb-13 07:55N 43°24' E 004°59'0 0.0
2018-Feb-13 07:25N 43°24' E 004°59'0 0.0
2018-Feb-13 06:55N 43°24' E 004°59'0 0.0
2018-Feb-13 06:25N 43°24' E 004°59'0 0.0
2018-Feb-13 05:55N 43°24' E 004°59'0 0.0
2018-Feb-13 05:19N 43°24' E 004°59'0 0.0
2018-Feb-13 04:55N 43°24' E 004°59'0 0.0
2018-Feb-13 04:25N 43°24' E 004°59'0 0.0
2018-Feb-13 03:55N 43°24' E 004°59'0 0.0
2018-Feb-13 03:25N 43°24' E 004°59'0 0.0
2018-Feb-13 02:55N 43°24' E 004°59'0 0.0
2018-Feb-13 02:25N 43°24' E 004°59'0 0.0
2018-Feb-13 01:55N 43°24' E 004°59'0 0.0
2018-Feb-13 01:25N 43°24' E 004°59'0 0.0
2018-Feb-13 00:55N 43°24' E 004°59'0 0.0
2018-Feb-13 00:25N 43°24' E 004°59'0 0.0
2018-Feb-12 23:55N 43°24' E 004°59'0 0.0
2018-Feb-12 23:25N 43°24' E 004°59'0 0.0
2018-Feb-12 22:55N 43°24' E 004°59'0 0.0
2018-Feb-12 22:25N 43°24' E 004°59'2 5.8
2018-Feb-12 22:01N 43°24' E 004°56'4 0.5
2018-Feb-12 12:25N 43°25' E 004°50'4 8.8
2018-Feb-12 12:00N 43°24' E 004°55'3 4.9
2018-Feb-12 11:23N 43°24' E 004°59'0 0.0
2018-Feb-12 10:59N 43°24' E 004°59'0 0.0
2018-Feb-12 10:29N 43°24' E 004°59'0 0.0
2018-Feb-12 09:59N 43°24' E 004°59'0 0.0
2018-Feb-12 09:29N 43°24' E 004°59'0 0.0
2018-Feb-12 08:59N 43°24' E 004°59'0 0.0
2018-Feb-12 08:29N 43°24' E 004°59'0 0.0
2018-Feb-12 07:59N 43°24' E 004°59'0 0.0
2018-Feb-12 07:29N 43°24' E 004°59'0 0.0
2018-Feb-12 06:59N 43°24' E 004°59'0 0.0
2018-Feb-12 06:29N 43°24' E 004°59'0 0.0
2018-Feb-12 05:47N 43°24' E 004°59'0 0.0
2018-Feb-12 05:29N 43°24' E 004°59'0 0.0
2018-Feb-12 04:59N 43°24' E 004°59'0 0.0
2018-Feb-12 04:29N 43°24' E 004°59'0 0.0
2018-Feb-12 03:59N 43°24' E 004°59'0 0.0
2018-Feb-12 03:29N 43°24' E 004°59'0 0.0
2018-Feb-12 02:59N 43°24' E 004°59'0 0.0
2018-Feb-12 02:29N 43°24' E 004°59'0 0.0
2018-Feb-12 01:59N 43°24' E 004°59'0 0.0
2018-Feb-12 01:29N 43°24' E 004°59'0 0.0
2018-Feb-12 00:59N 43°24' E 004°59'0 0.0
2018-Feb-12 00:29N 43°24' E 004°59'0 0.0
2018-Feb-11 23:59N 43°24' E 004°59'0 0.0
2018-Feb-11 23:29N 43°24' E 004°59'0 0.0
2018-Feb-11 22:59N 43°24' E 004°59'0 0.0
2018-Feb-11 22:29N 43°24' E 004°59'0 0.0
2018-Feb-11 21:59N 43°24' E 004°59'0 0.0
2018-Feb-11 21:29N 43°24' E 004°59'0 0.0
2018-Feb-11 20:53N 43°24' E 004°59'0 0.0
2018-Feb-11 20:29N 43°24' E 004°59'0 0.0
2018-Feb-11 19:53N 43°24' E 004°59'1 1.5
2018-Feb-11 19:29N 43°24' E 004°59'0 0.0
2018-Feb-11 18:59N 43°24' E 004°59'0 0.0
2018-Feb-11 18:29N 43°24' E 004°59'0 0.0
2018-Feb-11 17:59N 43°24' E 004°59'0 0.0
2018-Feb-11 17:29N 43°24' E 004°59'0 0.0
2018-Feb-11 16:59N 43°24' E 004°59'0 0.0
2018-Feb-11 16:29N 43°24' E 004°59'0 0.0
2018-Feb-11 15:59N 43°24' E 004°59'0 0.0
2018-Feb-11 15:29N 43°24' E 004°59'0 0.0
2018-Feb-11 14:53N 43°24' E 004°59'0 0.0
2018-Feb-11 14:29N 43°24' E 004°59'0 0.0
2018-Feb-11 13:59N 43°24' E 004°59'0 0.0
2018-Feb-11 13:29N 43°24' E 004°59'0 0.0
2018-Feb-11 12:59N 43°24' E 004°59'0 0.0
2018-Feb-11 12:29N 43°24' E 004°59'0 0.0
2018-Feb-11 11:59N 43°24' E 004°59'0 0.0
2018-Feb-11 11:29N 43°24' E 004°59'0 0.0
2018-Feb-11 10:59N 43°24' E 004°59'0 0.0
2018-Feb-11 10:29N 43°24' E 004°59'0 0.0
2018-Feb-11 09:53N 43°24' E 004°59'0 0.0
2018-Feb-11 09:29N 43°24' E 004°59'0 0.0
2018-Feb-11 08:59N 43°24' E 004°59'0 0.0
2018-Feb-11 08:29N 43°24' E 004°59'0 0.0
2018-Feb-11 07:59N 43°24' E 004°59'0 0.0
2018-Feb-11 07:29N 43°24' E 004°59'0 0.0
2018-Feb-11 06:47N 43°24' E 004°59'0 0.0
2018-Feb-11 06:29N 43°24' E 004°59'0 0.0
2018-Feb-11 05:59N 43°24' E 004°59'0 0.0
2018-Feb-11 05:29N 43°24' E 004°59'0 0.0
2018-Feb-11 04:59N 43°24' E 004°59'0 0.0
2018-Feb-11 04:29N 43°24' E 004°59'0 0.0
2018-Feb-11 03:59N 43°24' E 004°59'0 0.0
2018-Feb-11 03:17N 43°24' E 004°59'0 0.0
2018-Feb-11 02:59N 43°24' E 004°59'0 0.0
2018-Feb-11 02:29N 43°24' E 004°59'0 0.0
2018-Feb-11 01:59N 43°24' E 004°59'0 0.0
2018-Feb-11 01:29N 43°24' E 004°59'0 0.0
2018-Feb-11 00:59N 43°24' E 004°59'0 0.0
2018-Feb-11 00:29N 43°24' E 004°59'0 0.0
2018-Feb-10 23:59N 43°24' E 004°59'0 0.0
2018-Feb-10 23:29N 43°24' E 004°59'0 0.0
2018-Feb-10 22:53N 43°24' E 004°59'0 0.0
2018-Feb-10 22:29N 43°24' E 004°59'0 0.0
2018-Feb-10 21:59N 43°24' E 004°59'0 0.0
2018-Feb-10 21:23N 43°24' E 004°59'0 0.0
2018-Feb-10 20:59N 43°24' E 004°59'0 0.0
2018-Feb-10 20:29N 43°24' E 004°59'0 0.0
2018-Feb-10 19:59N 43°24' E 004°59'0 0.0
2018-Feb-10 19:29N 43°24' E 004°59'0 0.0
2018-Feb-10 18:59N 43°24' E 004°59'0 0.0
2018-Feb-10 18:29N 43°24' E 004°59'0 0.0
2018-Feb-10 17:59N 43°24' E 004°59'0 0.0
2018-Feb-10 17:29N 43°24' E 004°59'0 0.0
2018-Feb-10 16:59N 43°24' E 004°59'0 0.0
2018-Feb-10 16:29N 43°24' E 004°59'0 0.0
2018-Feb-10 15:59N 43°24' E 004°59'0 0.0
2018-Feb-10 15:29N 43°24' E 004°59'0 0.0
2018-Feb-10 14:59N 43°24' E 004°59'0 0.0
2018-Feb-10 14:29N 43°24' E 004°59'0 0.0
2018-Feb-10 13:59N 43°24' E 004°59'0 0.0
2018-Feb-10 13:29N 43°24' E 004°59'0 0.0
2018-Feb-10 12:59N 43°24' E 004°59'0 0.0
2018-Feb-10 12:29N 43°24' E 004°59'0 0.0
2018-Feb-10 11:59N 43°24' E 004°59'0 0.0
2018-Feb-10 11:29N 43°24' E 004°59'0 0.0
2018-Feb-10 10:59N 43°24' E 004°59'0 0.0
2018-Feb-10 10:29N 43°24' E 004°59'0 0.0
2018-Feb-10 09:59N 43°24' E 004°59'0 0.0
2018-Feb-10 09:29N 43°24' E 004°59'0 0.0
2018-Feb-10 08:59N 43°24' E 004°59'0 0.0
2018-Feb-10 08:29N 43°24' E 004°59'0 0.0
2018-Feb-10 07:59N 43°24' E 004°59'0 0.0
2018-Feb-10 07:29N 43°24' E 004°59'0 0.0
2018-Feb-10 06:59N 43°24' E 004°59'0 0.0
2018-Feb-10 06:29N 43°24' E 004°59'0 0.0
2018-Feb-10 05:59N 43°24' E 004°59'0 0.0
2018-Feb-10 05:29N 43°24' E 004°59'0 0.0
2018-Feb-10 04:59N 43°24' E 004°59'0 0.0
2018-Feb-10 04:29N 43°24' E 004°59'0 0.0
2018-Feb-10 03:59N 43°24' E 004°59'0 0.0
2018-Feb-10 03:29N 43°24' E 004°59'0 0.0
2018-Feb-10 02:59N 43°24' E 004°59'0 0.0
2018-Feb-10 02:29N 43°24' E 004°59'0 0.0
2018-Feb-10 01:59N 43°24' E 004°59'0 0.0
2018-Feb-10 01:29N 43°24' E 004°59'0 0.0
2018-Feb-10 00:59N 43°24' E 004°59'0 0.0
2018-Feb-10 00:29N 43°24' E 004°59'0 0.0
2018-Feb-09 23:59N 43°24' E 004°59'0 0.0
2018-Feb-09 23:29N 43°24' E 004°59'0 0.0
2018-Feb-09 22:59N 43°24' E 004°59'0 0.0
2018-Feb-09 22:41N 43°24' E 004°59'0 0.0
2018-Feb-08 01:30N 43°24' E 004°59'0 0.0
2018-Feb-08 01:00N 43°24' E 004°59'0 0.0
2018-Feb-08 00:30N 43°24' E 004°59'0 0.0
2018-Feb-08 00:00N 43°24' E 004°59'0 0.0
2018-Feb-07 23:30N 43°24' E 004°59'0 0.0
2018-Feb-07 23:00N 43°24' E 004°59'0 0.0
2018-Feb-07 22:30N 43°24' E 004°59'0 0.0
2018-Feb-07 22:00N 43°24' E 004°59'0 0.0
2018-Feb-07 21:31N 43°24' E 004°59'  
Track history (hours):
 
Tides and Currents Weather Stations Pressure Air Temp Water Temp Dewpoint Dewpoint Depression Visibility Wind Speed Wind Dir Waves Ship Positions

Cap Aiguades

Last reported at 2018-Feb-17 10:47 UTC. Time now 2018-Feb-19 00:22 UTC.
Position N 43°24' E 004°59'.

Length 89 m; draft 3.5 m.

Type: Ship. MMSI: 228237800.

Date/timePositionNaut miles runAvg speedWind from/ knotsBaromVisibWave heightAir tempDewpointWater temp
2018-Feb-17 10:47N 43°24' E 004°59'0 1.6
2018-Feb-17 10:30N 43°23' E 004°59'4 8.2
2018-Feb-17 09:59N 43°24' E 004°53'1 0.0
2018-Feb-15 22:25N 43°25' E 004°53'3 8.4
2018-Feb-15 22:01N 43°23' E 004°57'0 0.9
2018-Feb-15 21:30N 43°23' E 004°58'0 0.0
2018-Feb-15 21:00N 43°23' E 004°58'0 0.0
2018-Feb-15 20:27N 43°23' E 004°58'0 0.0
2018-Feb-15 20:00N 43°23' E 004°58'0 0.0
2018-Feb-15 19:30N 43°23' E 004°58'0 0.0
2018-Feb-15 19:00N 43°23' E 004°58'0 0.1
2018-Feb-15 18:30N 43°23' E 004°58'0 0.0
2018-Feb-15 18:00N 43°23' E 004°58'0 0.0
2018-Feb-15 17:27N 43°23' E 004°58'0 0.0
2018-Feb-15 16:54N 43°23' E 004°58'1 2.7
2018-Feb-15 16:28N 43°24' E 004°59'0 0.0
2018-Feb-15 15:58N 43°24' E 004°59'0 0.0
2018-Feb-15 15:28N 43°24' E 004°59'0 0.0
2018-Feb-15 14:52N 43°24' E 004°59'0 0.0
2018-Feb-15 14:28N 43°24' E 004°59'0 0.0
2018-Feb-15 13:58N 43°24' E 004°59'0 0.0
2018-Feb-15 13:28N 43°24' E 004°59'0 0.0
2018-Feb-15 12:52N 43°24' E 004°59'0 0.0
2018-Feb-15 12:28N 43°24' E 004°59'0 0.0
2018-Feb-15 11:52N 43°24' E 004°59'0 0.0
2018-Feb-15 11:22N 43°24' E 004°59'0 0.0
2018-Feb-15 10:46N 43°24' E 004°59'0 0.0
2018-Feb-15 10:28N 43°24' E 004°59'0 0.0
2018-Feb-15 09:58N 43°24' E 004°59'0 0.0
2018-Feb-15 09:28N 43°24' E 004°59'0 0.0
2018-Feb-15 08:58N 43°24' E 004°59'0 0.0
2018-Feb-15 08:28N 43°24' E 004°59'0 0.0
2018-Feb-15 07:58N 43°24' E 004°59'0 0.0
2018-Feb-15 07:28N 43°24' E 004°59'0 0.0
2018-Feb-15 06:58N 43°24' E 004°59'0 0.0
2018-Feb-15 06:25N 43°24' E 004°59'0 0.0
2018-Feb-15 05:58N 43°24' E 004°59'0 0.0
2018-Feb-15 05:28N 43°24' E 004°59'0 0.0
2018-Feb-15 04:58N 43°24' E 004°59'0 0.0
2018-Feb-15 04:22N 43°24' E 004°59'0 0.0
2018-Feb-15 03:58N 43°24' E 004°59'0 0.0
2018-Feb-15 03:28N 43°24' E 004°59'0 0.0
2018-Feb-15 02:58N 43°24' E 004°59'0 0.0
2018-Feb-15 02:28N 43°24' E 004°59'0 0.0
2018-Feb-15 01:58N 43°24' E 004°59'0 0.0
2018-Feb-15 01:19N 43°24' E 004°59'0 0.0
2018-Feb-15 00:58N 43°24' E 004°59'0 0.0
2018-Feb-15 00:28N 43°24' E 004°59'0 0.0
2018-Feb-14 23:58N 43°24' E 004°59'0 0.0
2018-Feb-14 23:28N 43°24' E 004°59'0 0.0
2018-Feb-14 22:58N 43°24' E 004°59'0 0.0
2018-Feb-14 22:10N 43°24' E 004°59'0 0.0
2018-Feb-14 21:52N 43°24' E 004°59'0 0.0
2018-Feb-14 21:22N 43°24' E 004°59'0 0.0
2018-Feb-14 20:58N 43°24' E 004°59'0 0.0
2018-Feb-14 20:28N 43°24' E 004°59'0 0.0
2018-Feb-14 19:58N 43°24' E 004°59'0 0.0
2018-Feb-14 19:28N 43°24' E 004°59'0 0.0
2018-Feb-14 18:58N 43°24' E 004°59'0 0.0
2018-Feb-14 18:28N 43°24' E 004°59'0 0.0
2018-Feb-14 17:58N 43°24' E 004°59'1 1.2
2018-Feb-14 17:27N 43°24' E 004°59'0 0.0
2018-Feb-14 16:57N 43°24' E 004°59'0 0.0
2018-Feb-14 16:27N 43°24' E 004°59'0 0.0
2018-Feb-14 15:57N 43°24' E 004°59'0 0.0
2018-Feb-14 15:27N 43°24' E 004°59'0 0.0
2018-Feb-14 14:57N 43°24' E 004°59'0 0.0
2018-Feb-14 14:15N 43°24' E 004°59'0 0.0
2018-Feb-14 13:57N 43°24' E 004°59'0 0.0
2018-Feb-14 13:27N 43°24' E 004°59'0 0.0
2018-Feb-14 12:57N 43°24' E 004°59'0 0.0
2018-Feb-14 12:27N 43°24' E 004°59'0 0.0
2018-Feb-14 11:57N 43°24' E 004°59'0 0.0
2018-Feb-14 11:27N 43°24' E 004°59'0 0.0
2018-Feb-14 10:57N 43°24' E 004°59'0 0.0
2018-Feb-14 10:27N 43°24' E 004°59'0 0.0
2018-Feb-14 09:57N 43°24' E 004°59'3 6.4
2018-Feb-14 09:30N 43°24' E 004°56'2 0.2
2018-Feb-14 00:24N 43°24' E 004°53'4 9.3
2018-Feb-14 00:00N 43°23' E 004°58'1 2.2
2018-Feb-13 23:27N 43°24' E 004°59'0 0.0
2018-Feb-13 22:57N 43°24' E 004°59'0 0.0
2018-Feb-13 22:27N 43°24' E 004°59'0 0.0
2018-Feb-13 22:00N 43°24' E 004°59'0 0.0
2018-Feb-13 21:27N 43°24' E 004°59'0 0.0
2018-Feb-13 20:57N 43°24' E 004°59'0 0.0
2018-Feb-13 20:27N 43°24' E 004°59'0 0.0
2018-Feb-13 19:57N 43°24' E 004°59'0 0.0
2018-Feb-13 19:27N 43°24' E 004°59'0 0.0
2018-Feb-13 19:00N 43°24' E 004°59'0 0.0
2018-Feb-13 18:30N 43°24' E 004°59'0 0.0
2018-Feb-13 17:57N 43°24' E 004°59'0 0.0
2018-Feb-13 17:27N 43°24' E 004°59'0 0.0
2018-Feb-13 16:57N 43°24' E 004°59'0 0.0
2018-Feb-13 16:27N 43°24' E 004°59'0 0.0
2018-Feb-13 15:51N 43°24' E 004°59'0 0.0
2018-Feb-13 15:27N 43°24' E 004°59'0 0.0
2018-Feb-13 14:57N 43°24' E 004°59'0 0.0
2018-Feb-13 14:21N 43°24' E 004°59'0 0.0
2018-Feb-13 14:00N 43°24' E 004°59'0 0.0
2018-Feb-13 13:21N 43°24' E 004°59'0 0.1
2018-Feb-13 12:58N 43°24' E 004°59'0 0.9
2018-Feb-13 12:25N 43°24' E 004°59'0 0.0
2018-Feb-13 11:55N 43°24' E 004°59'0 0.0
2018-Feb-13 11:19N 43°24' E 004°59'0 0.0
2018-Feb-13 10:55N 43°24' E 004°59'0 0.0
2018-Feb-13 10:25N 43°24' E 004°59'0 0.0
2018-Feb-13 09:55N 43°24' E 004°59'0 0.0
2018-Feb-13 09:25N 43°24' E 004°59'0 0.0
2018-Feb-13 08:55N 43°24' E 004°59'0 0.0
2018-Feb-13 08:25N 43°24' E 004°59'0 0.0
2018-Feb-13 07:55N 43°24' E 004°59'0 0.0
2018-Feb-13 07:25N 43°24' E 004°59'0 0.0
2018-Feb-13 06:55N 43°24' E 004°59'0 0.0
2018-Feb-13 06:25N 43°24' E 004°59'0 0.0
2018-Feb-13 05:55N 43°24' E 004°59'0 0.0
2018-Feb-13 05:19N 43°24' E 004°59'0 0.0
2018-Feb-13 04:55N 43°24' E 004°59'0 0.0
2018-Feb-13 04:25N 43°24' E 004°59'0 0.0
2018-Feb-13 03:55N 43°24' E 004°59'0 0.0
2018-Feb-13 03:25N 43°24' E 004°59'0 0.0
2018-Feb-13 02:55N 43°24' E 004°59'0 0.0
2018-Feb-13 02:25N 43°24' E 004°59'0 0.0
2018-Feb-13 01:55N 43°24' E 004°59'0 0.0
2018-Feb-13 01:25N 43°24' E 004°59'0 0.0
2018-Feb-13 00:55N 43°24' E 004°59'0 0.0
2018-Feb-13 00:25N 43°24' E 004°59'0 0.0
2018-Feb-12 23:55N 43°24' E 004°59'0 0.0
2018-Feb-12 23:25N 43°24' E 004°59'0 0.0
2018-Feb-12 22:55N 43°24' E 004°59'0 0.0
2018-Feb-12 22:25N 43°24' E 004°59'2 5.8
2018-Feb-12 22:01N 43°24' E 004°56'4 0.5
2018-Feb-12 12:25N 43°25' E 004°50'4 8.8
2018-Feb-12 12:00N 43°24' E 004°55'3 4.9
2018-Feb-12 11:23N 43°24' E 004°59'0 0.0
2018-Feb-12 10:59N 43°24' E 004°59'0 0.0
2018-Feb-12 10:29N 43°24' E 004°59'0 0.0
2018-Feb-12 09:59N 43°24' E 004°59'0 0.0
2018-Feb-12 09:29N 43°24' E 004°59'0 0.0
2018-Feb-12 08:59N 43°24' E 004°59'0 0.0
2018-Feb-12 08:29N 43°24' E 004°59'0 0.0
2018-Feb-12 07:59N 43°24' E 004°59'0 0.0
2018-Feb-12 07:29N 43°24' E 004°59'0 0.0
2018-Feb-12 06:59N 43°24' E 004°59'0 0.0
2018-Feb-12 06:29N 43°24' E 004°59'0 0.0
2018-Feb-12 05:47N 43°24' E 004°59'0 0.0
2018-Feb-12 05:29N 43°24' E 004°59'0 0.0
2018-Feb-12 04:59N 43°24' E 004°59'0 0.0
2018-Feb-12 04:29N 43°24' E 004°59'0 0.0
2018-Feb-12 03:59N 43°24' E 004°59'0 0.0
2018-Feb-12 03:29N 43°24' E 004°59'0 0.0
2018-Feb-12 02:59N 43°24' E 004°59'0 0.0
2018-Feb-12 02:29N 43°24' E 004°59'0 0.0
2018-Feb-12 01:59N 43°24' E 004°59'0 0.0
2018-Feb-12 01:29N 43°24' E 004°59'0 0.0
2018-Feb-12 00:59N 43°24' E 004°59'0 0.0
2018-Feb-12 00:29N 43°24' E 004°59'0 0.0
2018-Feb-11 23:59N 43°24' E 004°59'0 0.0
2018-Feb-11 23:29N 43°24' E 004°59'0 0.0
2018-Feb-11 22:59N 43°24' E 004°59'0 0.0
2018-Feb-11 22:29N 43°24' E 004°59'0 0.0
2018-Feb-11 21:59N 43°24' E 004°59'0 0.0
2018-Feb-11 21:29N 43°24' E 004°59'0 0.0
2018-Feb-11 20:53N 43°24' E 004°59'0 0.0
2018-Feb-11 20:29N 43°24' E 004°59'0 0.0
2018-Feb-11 19:53N 43°24' E 004°59'1 1.5
2018-Feb-11 19:29N 43°24' E 004°59'0 0.0
2018-Feb-11 18:59N 43°24' E 004°59'0 0.0
2018-Feb-11 18:29N 43°24' E 004°59'0 0.0
2018-Feb-11 17:59N 43°24' E 004°59'0 0.0
2018-Feb-11 17:29N 43°24' E 004°59'0 0.0
2018-Feb-11 16:59N 43°24' E 004°59'0 0.0
2018-Feb-11 16:29N 43°24' E 004°59'0 0.0
2018-Feb-11 15:59N 43°24' E 004°59'0 0.0
2018-Feb-11 15:29N 43°24' E 004°59'0 0.0
2018-Feb-11 14:53N 43°24' E 004°59'0 0.0
2018-Feb-11 14:29N 43°24' E 004°59'0 0.0
2018-Feb-11 13:59N 43°24' E 004°59'0 0.0
2018-Feb-11 13:29N 43°24' E 004°59'0 0.0
2018-Feb-11 12:59N 43°24' E 004°59'0 0.0
2018-Feb-11 12:29N 43°24' E 004°59'0 0.0
2018-Feb-11 11:59N 43°24' E 004°59'0 0.0
2018-Feb-11 11:29N 43°24' E 004°59'0 0.0
2018-Feb-11 10:59N 43°24' E 004°59'0 0.0
2018-Feb-11 10:29N 43°24' E 004°59'0 0.0
2018-Feb-11 09:53N 43°24' E 004°59'0 0.0
2018-Feb-11 09:29N 43°24' E 004°59'0 0.0
2018-Feb-11 08:59N 43°24' E 004°59'0 0.0
2018-Feb-11 08:29N 43°24' E 004°59'0 0.0
2018-Feb-11 07:59N 43°24' E 004°59'0 0.0
2018-Feb-11 07:29N 43°24' E 004°59'0 0.0
2018-Feb-11 06:47N 43°24' E 004°59'0 0.0
2018-Feb-11 06:29N 43°24' E 004°59'0 0.0
2018-Feb-11 05:59N 43°24' E 004°59'0 0.0
2018-Feb-11 05:29N 43°24' E 004°59'0 0.0
2018-Feb-11 04:59N 43°24' E 004°59'0 0.0
2018-Feb-11 04:29N 43°24' E 004°59'0 0.0
2018-Feb-11 03:59N 43°24' E 004°59'0 0.0
2018-Feb-11 03:17N 43°24' E 004°59'0 0.0
2018-Feb-11 02:59N 43°24' E 004°59'0 0.0
2018-Feb-11 02:29N 43°24' E 004°59'0 0.0
2018-Feb-11 01:59N 43°24' E 004°59'0 0.0
2018-Feb-11 01:29N 43°24' E 004°59'0 0.0
2018-Feb-11 00:59N 43°24' E 004°59'0 0.0
2018-Feb-11 00:29N 43°24' E 004°59'0 0.0
2018-Feb-10 23:59N 43°24' E 004°59'0 0.0
2018-Feb-10 23:29N 43°24' E 004°59'0 0.0
2018-Feb-10 22:53N 43°24' E 004°59'0 0.0
2018-Feb-10 22:29N 43°24' E 004°59'0 0.0
2018-Feb-10 21:59N 43°24' E 004°59'0 0.0
2018-Feb-10 21:23N 43°24' E 004°59'0 0.0
2018-Feb-10 20:59N 43°24' E 004°59'0 0.0
2018-Feb-10 20:29N 43°24' E 004°59'0 0.0
2018-Feb-10 19:59N 43°24' E 004°59'0 0.0
2018-Feb-10 19:29N 43°24' E 004°59'0 0.0
2018-Feb-10 18:59N 43°24' E 004°59'0 0.0
2018-Feb-10 18:29N 43°24' E 004°59'0 0.0
2018-Feb-10 17:59N 43°24' E 004°59'0 0.0
2018-Feb-10 17:29N 43°24' E 004°59'0 0.0
2018-Feb-10 16:59N 43°24' E 004°59'0 0.0
2018-Feb-10 16:29N 43°24' E 004°59'0 0.0
2018-Feb-10 15:59N 43°24' E 004°59'0 0.0
2018-Feb-10 15:29N 43°24' E 004°59'0 0.0
2018-Feb-10 14:59N 43°24' E 004°59'0 0.0
2018-Feb-10 14:29N 43°24' E 004°59'0 0.0
2018-Feb-10 13:59N 43°24' E 004°59'0 0.0
2018-Feb-10 13:29N 43°24' E 004°59'0 0.0
2018-Feb-10 12:59N 43°24' E 004°59'0 0.0
2018-Feb-10 12:29N 43°24' E 004°59'0 0.0
2018-Feb-10 11:59N 43°24' E 004°59'0 0.0
2018-Feb-10 11:29N 43°24' E 004°59'0 0.0
2018-Feb-10 10:59N 43°24' E 004°59'0 0.0
2018-Feb-10 10:29N 43°24' E 004°59'0 0.0
2018-Feb-10 09:59N 43°24' E 004°59'0 0.0
2018-Feb-10 09:29N 43°24' E 004°59'0 0.0
2018-Feb-10 08:59N 43°24' E 004°59'0 0.0
2018-Feb-10 08:29N 43°24' E 004°59'0 0.0
2018-Feb-10 07:59N 43°24' E 004°59'0 0.0
2018-Feb-10 07:29N 43°24' E 004°59'0 0.0
2018-Feb-10 06:59N 43°24' E 004°59'0 0.0
2018-Feb-10 06:29N 43°24' E 004°59'0 0.0
2018-Feb-10 05:59N 43°24' E 004°59'0 0.0
2018-Feb-10 05:29N 43°24' E 004°59'0 0.0
2018-Feb-10 04:59N 43°24' E 004°59'0 0.0
2018-Feb-10 04:29N 43°24' E 004°59'0 0.0
2018-Feb-10 03:59N 43°24' E 004°59'0 0.0
2018-Feb-10 03:29N 43°24' E 004°59'0 0.0
2018-Feb-10 02:59N 43°24' E 004°59'0 0.0
2018-Feb-10 02:29N 43°24' E 004°59'0 0.0
2018-Feb-10 01:59N 43°24' E 004°59'0 0.0
2018-Feb-10 01:29N 43°24' E 004°59'0 0.0
2018-Feb-10 00:59N 43°24' E 004°59'0 0.0
2018-Feb-10 00:29N 43°24' E 004°59'0 0.0
2018-Feb-09 23:59N 43°24' E 004°59'0 0.0
2018-Feb-09 23:29N 43°24' E 004°59'0 0.0
2018-Feb-09 22:59N 43°24' E 004°59'0 0.0
2018-Feb-09 22:41N 43°24' E 004°59'0 0.0
2018-Feb-08 01:30N 43°24' E 004°59'0 0.0
2018-Feb-08 01:00N 43°24' E 004°59'0 0.0
2018-Feb-08 00:30N 43°24' E 004°59'0 0.0
2018-Feb-08 00:00N 43°24' E 004°59'0 0.0
2018-Feb-07 23:30N 43°24' E 004°59'0 0.0
2018-Feb-07 23:00N 43°24' E 004°59'0 0.0
2018-Feb-07 22:30N 43°24' E 004°59'0 0.0
2018-Feb-07 22:00N 43°24' E 004°59'0 0.0
2018-Feb-07 21:31N 43°24' E 004°59'  

Dump ship's entire track history